createdAt,value
2023-03-29T00:03:24.760Z,102583.00
2023-03-29T00:13:48.165Z,102567.00
2023-03-29T00:24:09.596Z,102549.00
2023-03-29T00:34:32.831Z,102539.00
2023-03-29T00:45:04.398Z,102534.00
2023-03-29T00:55:30.529Z,102523.00
2023-03-29T01:05:57.984Z,102511.00
2023-03-29T01:16:22.651Z,102489.00
2023-03-29T01:26:51.838Z,102474.00
2023-03-29T01:37:21.910Z,102444.00
2023-03-29T01:47:51.518Z,102432.00
2023-03-29T01:58:18.273Z,102422.00
2023-03-29T02:08:42.571Z,102402.00
2023-03-29T02:19:06.731Z,102398.00
2023-03-29T02:29:29.629Z,102376.00
2023-03-29T02:39:54.883Z,102359.00
2023-03-29T02:50:16.809Z,102346.00
2023-03-29T03:00:44.711Z,102337.00
2023-03-29T03:11:07.019Z,102344.00
2023-03-29T03:21:29.740Z,102335.00
2023-03-29T03:31:53.800Z,102318.00
2023-03-29T03:42:52.867Z,102316.00
2023-03-29T03:53:15.010Z,102303.00
2023-03-29T04:03:56.757Z,102299.00
2023-03-29T04:14:20.457Z,102299.00
2023-03-29T04:25:03.812Z,102288.00
2023-03-29T04:35:34.980Z,102287.00
2023-03-29T04:45:59.301Z,102291.00
2023-03-29T04:56:39.859Z,102270.00
2023-03-29T05:07:26.927Z,102273.00
2023-03-29T05:17:49.073Z,102251.00
2023-03-29T05:28:12.860Z,102236.00
2023-03-29T05:38:35.778Z,102237.00
2023-03-29T05:48:59.611Z,102221.00
2023-03-29T05:59:37.018Z,102213.00
2023-03-29T06:10:00.307Z,102214.00
2023-03-29T06:20:22.711Z,102204.00
2023-03-29T06:30:51.379Z,102199.00
2023-03-29T06:41:13.631Z,102196.00
2023-03-29T06:51:57.029Z,102187.00
2023-03-29T07:02:18.869Z,102172.00
2023-03-29T07:12:47.213Z,102155.00
2023-03-29T07:23:11.462Z,102167.00
2023-03-29T07:33:43.144Z,102157.00
2023-03-29T07:44:09.088Z,102125.00
2023-03-29T07:54:32.988Z,102116.00
2023-03-29T08:05:10.951Z,102110.00
2023-03-29T08:15:53.910Z,102106.00
2023-03-29T08:26:24.618Z,102110.00
2023-03-29T08:36:47.952Z,102097.00
2023-03-29T08:47:26.615Z,102064.00
2023-03-29T08:57:52.436Z,102049.00
2023-03-29T09:08:24.193Z,102037.00
2023-03-29T09:19:02.559Z,102003.00
2023-03-29T09:29:46.154Z,102022.00
2023-03-29T09:40:16.564Z,102010.00
2023-03-29T09:51:03.045Z,101970.00
2023-03-29T10:01:37.867Z,101974.00
2023-03-29T10:12:03.441Z,101964.00
2023-03-29T10:22:28.415Z,101934.00
2023-03-29T10:32:58.023Z,101957.00
2023-03-29T10:43:27.081Z,101933.00
2023-03-29T10:53:49.049Z,101919.00
2023-03-29T11:04:22.988Z,101908.00
2023-03-29T11:14:56.999Z,101900.00
2023-03-29T11:25:29.708Z,101901.00
2023-03-29T11:35:57.526Z,101899.00
2023-03-29T11:46:26.447Z,101890.00
2023-03-29T11:56:52.767Z,101888.00
2023-03-29T12:07:20.580Z,101890.00
2023-03-29T12:17:46.905Z,101856.00
2023-03-29T12:28:28.441Z,101872.00
2023-03-29T12:38:53.692Z,101870.00
2023-03-29T12:49:38.669Z,101855.00
2023-03-29T13:00:13.981Z,101830.00
2023-03-29T13:10:40.692Z,101816.00
2023-03-29T13:21:11.597Z,101820.00
2023-03-29T13:31:40.417Z,101824.00
2023-03-29T13:42:19.708Z,101810.00
2023-03-29T13:52:49.947Z,101820.00
2023-03-29T14:03:15.478Z,101820.00
2023-03-29T14:13:38.555Z,101804.00
2023-03-29T14:24:05.326Z,101817.00
2023-03-29T14:34:28.681Z,101819.00
2023-03-29T14:44:51.704Z,101811.00
2023-03-29T14:55:18.196Z,101815.00
2023-03-29T15:05:43.863Z,101787.00
2023-03-29T15:16:08.365Z,101798.00
2023-03-29T15:26:32.393Z,101789.00
2023-03-29T15:36:57.280Z,101759.00
2023-03-29T15:47:18.899Z,101743.00
2023-03-29T15:57:43.167Z,101735.00
2023-03-29T16:08:05.006Z,101720.00
2023-03-29T16:18:27.945Z,101717.00
2023-03-29T16:28:49.391Z,101714.00
2023-03-29T16:39:13.724Z,101734.00
2023-03-29T16:49:35.427Z,101730.00
2023-03-29T16:59:57.983Z,101707.00
2023-03-29T17:10:20.050Z,101723.00
2023-03-29T17:20:43.301Z,101711.00
2023-03-29T17:31:07.360Z,101717.00
2023-03-29T17:41:31.062Z,101719.00
2023-03-29T17:51:53.047Z,101699.00
2023-03-29T18:02:17.764Z,101706.00
2023-03-29T18:12:39.651Z,101717.00
2023-03-29T18:23:02.719Z,101713.00
2023-03-29T18:33:25.708Z,101712.00
2023-03-29T18:43:48.424Z,101712.00
2023-03-29T18:54:09.922Z,101724.00
2023-03-29T19:04:33.389Z,101714.00
2023-03-29T19:14:55.105Z,101717.00
2023-03-29T19:25:18.070Z,101700.00
2023-03-29T19:35:39.430Z,101704.00
2023-03-29T19:46:10.348Z,101682.00
2023-03-29T19:56:33.071Z,101670.00
2023-03-29T20:06:57.611Z,101673.00
2023-03-29T20:17:19.414Z,101652.00
2023-03-29T20:27:42.981Z,101653.00
2023-03-29T20:38:04.771Z,101652.00
2023-03-29T20:48:31.196Z,101627.00
2023-03-29T20:58:55.694Z,101629.00
2023-03-29T21:09:19.149Z,101613.00
2023-03-29T21:19:41.288Z,101614.00
2023-03-29T21:30:04.760Z,101604.00
2023-03-29T21:40:26.180Z,101594.00
2023-03-29T21:50:50.918Z,101574.00
2023-03-29T22:01:12.317Z,101572.00
2023-03-29T22:11:35.543Z,101552.00
2023-03-29T22:22:01.250Z,101544.00
2023-03-29T22:32:24.243Z,101537.00
2023-03-29T22:42:46.052Z,101546.00
2023-03-29T22:53:09.110Z,101539.00
2023-03-29T23:03:30.511Z,101522.00
2023-03-29T23:13:53.967Z,101495.00
2023-03-29T23:24:18.384Z,101499.00
2023-03-29T23:34:42.144Z,101489.00
2023-03-29T23:45:04.351Z,101494.00
2023-03-29T23:55:27.541Z,101485.00
